METAR EFET 151020Z AUTO 36014KT CAVOK 10/03 Q0990=
METAR EFHA 151020Z 26017KT 9999 BKN037 15/06 Q1005=
METAR EFHK 151020Z 27014KT 9999 SCT045 17/06 Q1008 NOSIG=
METAR EFIV 151020Z AUTO 03009KT 9999 RA FEW008 OVC037 09/08 Q0987=
METAR EFJO 151020Z AUTO 25016KT 220V290 9999 OVC035 14/07 Q1002=
METAR EFJY 151020Z 24014G24KT 200V280 9999 SCT036 BKN049 15/06 Q1003=
METAR EFKE 151020Z AUTO 29013G23KT 9999 -SHRA FEW016 OVC020 12/10 Q0991=
METAR EFKI 151020Z AUTO 25019KT 9999 OVC018 11/08 Q0995=
METAR EFKK 151020Z AUTO 23016G27KT 9999 BKN029 14/07 Q1000=
METAR EFKS 151020Z AUTO 20015KT 9999 -SHRA BKN014 //////CB 13/10 Q0986=
METAR EFKT 151020Z AUTO 01014KT 9999 RA OVC015 09/07 Q0988=
METAR EFKU 151020Z AUTO 24018KT 9999 BKN032 14/07 Q1001=
METAR EFLA 151020Z AUTO 25013KT 210V290 9999 SCT045/// 17/06 Q1006=
METAR EFLP 151020Z AUTO 26016KT 230V300 9999 SCT046 19/07 Q1006=
METAR EFMA 151020Z AUTO 19008KT CAVOK 16/10 Q1009=
METAR EFMI 151020Z AUTO 26016G26KT 230V300 9999 BKN039 16/06 Q1005=
METAR EFOU 151020Z AUTO 27015G25KT 240V300 9999 -RA OVC020 12/09 Q0994=
METAR EFPO 151020Z AUTO 27013KT 240V300 CAVOK 15/06 Q1008=
METAR EFRO 151020Z 31013KT 9999 -RA BKN006 09/08 Q0986=
METAR EFSA 151020Z AUTO 26015KT 230V300 9999 OVC039 15/06 Q1004=
METAR EFSI 151020Z AUTO 24012G23KT 180V310 9999 SCT039 13/05 Q1003=
METAR EFTP 151020Z 26017KT 9999 BKN040 16/05 Q1006=
METAR EFTU 151020Z AUTO 29010KT 230V360 CAVOK 18/06 Q1009=
METAR EFUT 151020Z 28013G23KT 250V310 9999 FEW048 18/06 Q1007=
METAR EFVA 151020Z AUTO 25021G31KT 9999 FEW033 14/07 Q1003=
ILHF 151020Z AUTO 27010KT CAVOK 19/06 Q1008=
ILIK 151020Z AUTO 23010KT 9999 BKN043 18/06 Q1008=
ILJY 151020Z AUTO 24011G22KT 9999 FEW035 SCT054 16/06 Q1003=
ILKA 151020Z AUTO 26015KT 9999 BKN032 15/08 Q1002=
ILKM 151020Z AUTO 18011KT 9999 +SHRA FEW006 BKN030 BKN049 //////CB 11/10 Q0984=
ILMI 151020Z AUTO 26011G23KT 9999 BKN039 17/07 Q1005=
ILPR 151020Z AUTO 22011KT CAVOK 20/08 Q1007=
ILPU 151010Z AUTO 24016G31KT 9999 FEW007 BKN012 BKN016 11/09 Q0989=
ILQA 151020Z AUTO 14005KT 9999 -SHRA BKN018 BKN057 //////CB 12/12 Q0985=
ILQB 151020Z AUTO 01008KT 3900 RA BKN014 09/09 Q0987=
ILQC 151020Z AUTO 33008KT 9999 -SHRA FEW015 BKN052 10/08 Q0990=
ILQD 151020Z AUTO /////KT 9000 RA OVC006 09/08 Q////=
ILQE 151010Z AUTO 31009KT 9999 -RA FEW020 BKN047 11/10 Q0989=
ILQF 151020Z AUTO 29013KT 9999 OVC016 11/09 Q0989=
ILQH 151020Z AUTO 25026KT 9999 BKN042 //////CB 12/09 Q0994=
ILQI 151020Z AUTO 34008KT //// // OVC008 08/08 Q0989=
ILQJ 151020Z AUTO 30024KT 9999 FEW020 SCT027 BKN033 13/09 Q0991=
ILQK 151020Z AUTO 35017KT 9999 -DZ ////// 06/06 Q0988=
ILQL 151020Z AUTO 27031KT 9999 ////// 13/09 Q0993=
ILQM 151020Z AUTO 36010KT 9999 RA OVC043 08/08 Q////=
ILQN 151020Z AUTO 36010KT CAVOK 08/03 Q0993=
ILQO 151020Z AUTO 33009KT 9999 SCT004 BKN006 //////CB 10/09 Q0985=
ILQP 151020Z AUTO 24028KT 9999 //////CB 13/10 Q0996=
ILQQ 151020Z AUTO 29009KT 9999 -SHRA BKN019 13/10 Q0991=
ILQR 151020Z AUTO 30009KT 5000 RA FEW009 BKN014 BKN018 10/09 Q0986=
ILQS 151020Z AUTO 26012G25KT 9999 -SHRA FEW005 SCT013 BKN016 11/10 Q0991=
ILQT 151020Z AUTO 36010KT 9999 SCT031 SCT060 BKN069 10/03 Q0990=
ILQU 151020Z AUTO 03013KT 9999 FEW029 BKN038 BKN043 11/04 Q0991=
ILQV 151020Z AUTO 36010KT 7000 RA FEW010 SCT019 BKN024 //////CB 08/08 Q0985=
ILQX 151020Z AUTO 26010G24KT 9999 -RA BKN018 12/11 Q0994=
ILQY 151020Z AUTO 26018G28KT 9999 -SHRA BKN014 11/09 Q0995=
ILRO 150920Z AUTO /////KT 9999 -SHRA //////CB 11/10 Q////=
ILRU 151020Z AUTO 27013G25KT 5000 -SHRA OVC005 10/10 Q0986=
ILWA 151020Z AUTO 23015G27KT CAVOK 15/11 Q1008=
ILWD 151020Z AUTO /////KT //// // BKN036 16/06 Q////=
ILWE 151020Z AUTO 02012KT 9999 RA OVC016 08/07 Q0990=
ILWF 151020Z AUTO 22016G28KT 9999 -SHRA BKN013 OVC047 11/09 Q////=
ILWG 151020Z AUTO /////KT 9999 SCT037 15/05 Q1005=
ILXA 151020Z AUTO /////KT 9999 BKN034 14/06 Q1003=
ILXB 151020Z AUTO 27008KT CAVOK 15/07 Q1008=
ILXC 151020Z AUTO 24017G27KT 9999 BKN036 15/06 Q1003=
ILXE 151020Z AUTO /////KT //// // ////// 11/09 Q0997=
ILXF 151020Z AUTO 23016KT CAVOK 13/10 Q1008=
ILXG 151020Z AUTO 24024KT CAVOK 13/09 Q1005=
ILXI 150920Z AUTO 23024G42KT //// // FEW038 BKN044 BKN063 16/09 Q0999=
ILXJ 151020Z AUTO 26015G29KT 9999 BKN018 11/08 Q0995=
ILXK 151020Z AUTO 22008G21KT 9000 -RA FEW016 BKN021 OVC026 11/10 Q0994=
ILXL 151020Z AUTO /////KT 9999 BKN034 //////CB 14/06 Q1001=
ILXM 151020Z AUTO /////KT 9999 -SHRA OVC021 11/10 Q////=
ILXN 151020Z AUTO 25011KT 9999 FEW033 SCT039 BKN046 15/06 Q1006=
ILXO 151020Z AUTO 25016KT 9999 SCT028 BKN033 14/08 Q1005=
ILXP 151010Z AUTO 25016KT CAVOK 12/09 Q1007=
ILXQ 151020Z AUTO /////KT 9999 BKN042 17/05 Q////=
ILXR 151020Z AUTO 23010G23KT 9999 ////// 11/08 Q0999=
ILXS 151020Z AUTO 26015G31KT 9999 BKN020 11/08 Q0996=
ILXT 151020Z AUTO 24025KT CAVOK 13/09 Q0999=
ILXU 151020Z AUTO /////KT 9999 BKN040 17/08 Q1004=
ILXV 151020Z AUTO 24010G20KT 9999 BKN035 15/07 Q1000=
ILXW 151020Z AUTO 24012KT 9999 BKN024 13/09 Q0998=
ILXX 151020Z AUTO 25021G31KT //// // NCD 15/07 Q1003=
ILXY 151020Z AUTO 24010G25KT 9999 FEW034 BKN049 14/07 Q1001=
ILXZ 151020Z AUTO 26015KT 9999 FEW040 SCT049 17/06 Q////=
ILYL 151020Z AUTO 26018G31KT 9999 FEW024 BKN036 13/08 Q0998=
ILZA 151020Z AUTO 22021KT CAVOK 14/10 Q1009=
ILZB 151010Z AUTO 27010KT 9999 FEW043 18/07 Q1009=
ILZC 151020Z AUTO /////KT 9999 SCT046 19/07 Q1006=
ILZD 151020Z AUTO 26016G27KT 9999 FEW049 19/06 Q1008=
ILZE 151020Z AUTO 29012KT 9999 FEW049 19/06 Q1008=
ILZF 151020Z AUTO 22010G21KT 9999 FEW047 19/08 Q1008=
ILZG 151020Z AUTO /////KT 9999 BKN045 17/07 Q1008=
ILZH 151020Z AUTO /////KT 9999 FEW038 16/05 Q1006=
ILZI 151020Z AUTO 25010KT CAVOK 15/08 Q1009=
ILZJ 151020Z AUTO 27008G18KT 9999 BKN047 16/06 Q1008=
ILZK 151020Z AUTO 22011KT CAVOK 18/10 Q1009=
ILZL 151020Z AUTO 26014G26KT 9999 FEW049 18/05 Q1006=
ILZM 151020Z AUTO /////KT 9999 BKN048 18/07 Q1008=
ILZO 151020Z AUTO 25023KT CAVOK 14/11 Q1008=
ILZP 151020Z AUTO 29015KT 9999 FEW042 15/05 Q1007=
ILZQ 151020Z AUTO 26009KT 9999 BKN048 18/06 Q1008=
ILZR 151020Z AUTO 26011KT CAVOK 19/05 Q1009=
ILZS 151020Z AUTO 25021KT CAVOK 16/11 Q1009=
ILZT 151020Z AUTO 25021KT CAVOK 13/11 Q1010=
ILZU 151020Z AUTO 22008KT CAVOK 16/12 Q1010=
ILZV 151020Z AUTO 27010KT 9999 FEW049 19/06 Q1008=
ILZW 151020Z AUTO 23018KT CAVOK 16/11 Q1008=
ILZX 151020Z AUTO 25012KT CAVOK 19/06 Q1008=
ILZY 151020Z AUTO 22013KT CAVOK 13/10 Q1009=
ILZZ 151020Z AUTO /////KT 9999 FEW046 17/05 Q1007=